Time;durP1;ratioP1;P1;durP2;ratioP2;P2;SDS_P1;SDS_P2;PMS_P1;PMS_P2;Temp;Humidity;BMP_temperature;BMP_pressure;BME280_temperature;BME280_humidity;BME280_pressure;Samples;Min_cycle;Max_cycle;Signal;HPM_P1;HPM_P2
2023/07/27 00:01:56;;;;;;;3.30;1.85;;;22.50;59.40;;;;;;5093662;28;20219;-55
2023/07/27 00:04:24;;;;;;;3.58;1.98;;;22.50;59.40;;;;;;5093802;28;20190;-53
2023/07/27 00:06:53;;;;;;;2.85;1.45;;;22.50;59.40;;;;;;5093518;28;21032;-54
2023/07/27 00:09:20;;;;;;;3.88;1.90;;;22.50;59.40;;;;;;5093917;28;20190;-54
2023/07/27 00:11:48;;;;;;;3.70;2.00;;;22.50;59.40;;;;;;5093367;28;20307;-54
2023/07/27 00:14:16;;;;;;;4.45;1.88;;;22.50;59.40;;;;;;5093603;28;20194;-52
2023/07/27 00:16:43;;;;;;;3.42;1.63;;;22.50;59.50;;;;;;5093621;28;20229;-51
2023/07/27 00:19:10;;;;;;;3.63;1.73;;;22.50;59.50;;;;;;5093536;28;20186;-55
2023/07/27 00:21:37;;;;;;;3.70;2.00;;;22.50;59.40;;;;;;5093246;28;20257;-49
2023/07/27 00:24:07;;;;;;;4.07;1.98;;;22.50;59.50;;;;;;5093412;28;20186;-53
2023/07/27 00:26:34;;;;;;;4.85;1.95;;;22.50;59.50;;;;;;5093093;28;20221;-55
2023/07/27 00:29:01;;;;;;;3.88;1.83;;;22.50;59.50;;;;;;5093315;28;20190;-52
2023/07/27 00:31:29;;;;;;;3.80;2.25;;;22.50;59.50;;;;;;5092508;28;20238;-54
2023/07/27 00:33:56;;;;;;;3.85;1.90;;;22.50;59.50;;;;;;5093467;28;20229;-52
2023/07/27 00:36:23;;;;;;;4.68;1.90;;;22.50;59.50;;;;;;5093179;28;20214;-54
2023/07/27 00:38:51;;;;;;;3.35;1.77;;;22.50;59.50;;;;;;5093146;28;20197;-51
2023/07/27 00:41:19;;;;;;;2.25;1.67;;;22.50;59.50;;;;;;5093173;28;20218;-51
2023/07/27 00:43:47;;;;;;;3.88;1.90;;;22.50;59.50;;;;;;5093075;28;20186;-53
2023/07/27 00:46:14;;;;;;;2.72;1.88;;;22.40;59.40;;;;;;5092937;28;20221;-52
2023/07/27 00:48:42;;;;;;;5.40;2.00;;;22.40;59.40;;;;;;5093030;28;20204;-55
2023/07/27 00:51:12;;;;;;;3.83;2.20;;;22.40;59.40;;;;;;5093098;28;20556;-53
2023/07/27 00:53:39;;;;;;;4.85;2.08;;;22.40;59.40;;;;;;5092790;28;20214;-52
2023/07/27 00:56:06;;;;;;;3.03;1.77;;;22.50;59.50;;;;;;5092985;28;20214;-52
2023/07/27 00:58:37;;;;;;;4.13;2.05;;;22.40;59.40;;;;;;5092788;28;20214;-54
2023/07/27 01:01:06;;;;;;;3.50;2.00;;;22.50;59.60;;;;;;5092871;28;20249;-58
2023/07/27 01:03:33;;;;;;;4.38;1.95;;;22.50;59.50;;;;;;5092773;28;20247;-53
2023/07/27 01:06:01;;;;;;;4.03;1.92;;;22.50;59.50;;;;;;5092690;28;20218;-55
2023/07/27 01:08:28;;;;;;;3.85;2.10;;;22.40;59.40;;;;;;5092484;28;20186;-50
2023/07/27 01:11:01;;;;;;;5.80;2.15;;;22.40;59.40;;;;;;5092447;28;20738;-51
2023/07/27 01:13:36;;;;;;;4.40;2.03;;;22.50;59.60;;;;;;5092544;28;20218;-54
2023/07/27 01:16:11;;;;;;;4.20;2.25;;;22.40;59.50;;;;;;5092506;28;20255;-53
2023/07/27 01:18:50;;;;;;;4.18;1.88;;;22.40;59.50;;;;;;5092560;28;20190;-52
2023/07/27 01:21:21;;;;;;;4.32;2.30;;;22.40;59.50;;;;;;5092245;28;20225;-55
2023/07/27 01:24:36;;;;;;;3.60;2.10;;;22.50;59.60;;;;;;5092185;28;20185;-54
2023/07/27 01:27:18;;;;;;;3.30;1.77;;;22.40;59.60;;;;;;5092627;28;20221;-52
2023/07/27 01:29:58;;;;;;;3.53;1.98;;;22.40;59.60;;;;;;5092461;28;20223;-51
2023/07/27 01:32:31;;;;;;;4.25;1.98;;;22.40;59.50;;;;;;5092571;28;20210;-56
2023/07/27 01:35:01;;;;;;;4.10;2.05;;;22.40;59.60;;;;;;5092336;28;20193;-53
2023/07/27 01:37:31;;;;;;;4.00;2.00;;;22.40;59.60;;;;;;5092527;28;20287;-52
2023/07/27 01:40:01;;;;;;;3.85;2.00;;;22.40;59.60;;;;;;5092350;28;20186;-52
2023/07/27 01:42:30;;;;;;;3.83;1.90;;;22.40;59.60;;;;;;5093442;28;20214;-54
2023/07/27 01:44:59;;;;;;;4.97;2.20;;;22.40;59.60;;;;;;5096204;28;20284;-51
2023/07/27 01:47:29;;;;;;;4.32;2.10;;;22.40;59.60;;;;;;5096675;28;20220;-55
2023/07/27 01:49:57;;;;;;;3.58;2.25;;;22.40;59.60;;;;;;5096400;28;20182;-54
2023/07/27 01:52:26;;;;;;;5.97;2.42;;;22.40;59.70;;;;;;5096471;28;20210;-54
2023/07/27 01:54:56;;;;;;;5.30;2.45;;;22.40;59.70;;;;;;5095981;28;20234;-51
2023/07/27 01:57:24;;;;;;;4.68;2.53;;;22.40;59.60;;;;;;5096456;28;20220;-52
2023/07/27 01:59:52;;;;;;;4.15;2.10;;;22.40;59.70;;;;;;5096225;28;20190;-53
2023/07/27 02:02:20;;;;;;;3.95;2.30;;;22.40;59.70;;;;;;5096077;28;20707;-50
2023/07/27 02:04:51;;;;;;;4.13;2.38;;;22.40;59.70;;;;;;5095864;28;20276;-54
2023/07/27 02:07:18;;;;;;;4.53;2.30;;;22.30;60.30;;;;;;5096244;28;20245;-54
2023/07/27 02:09:46;;;;;;;6.03;2.45;;;22.40;59.70;;;;;;5095721;28;20191;-53
2023/07/27 02:12:19;;;;;;;5.05;2.25;;;22.40;59.70;;;;;;5095812;28;20218;-54
2023/07/27 02:14:55;;;;;;;3.03;2.20;;;22.40;59.70;;;;;;5095809;28;20214;-53
2023/07/27 02:17:30;;;;;;;5.00;2.35;;;22.40;59.70;;;;;;5095686;28;20300;-52
2023/07/27 02:20:02;;;;;;;5.32;2.50;;;22.40;59.70;;;;;;5095533;28;20292;-53
2023/07/27 02:22:30;;;;;;;4.57;2.42;;;22.30;59.70;;;;;;5096106;28;20296;-54
2023/07/27 02:24:58;;;;;;;4.93;2.38;;;22.40;59.70;;;;;;5095711;28;20186;-52
2023/07/27 02:27:25;;;;;;;4.18;2.50;;;22.30;59.70;;;;;;5095820;28;20221;-51
2023/07/27 02:29:53;;;;;;;4.25;2.53;;;22.30;59.70;;;;;;5095676;28;20277;-51
2023/07/27 02:32:20;;;;;;;5.25;2.90;;;22.30;59.70;;;;;;5095425;28;20234;-54
2023/07/27 02:34:47;;;;;;;4.47;2.92;;;22.30;59.70;;;;;;5095749;28;20265;-54
2023/07/27 02:37:16;;;;;;;3.25;2.25;;;22.40;59.70;;;;;;5095623;28;20217;-52
2023/07/27 02:39:43;;;;;;;5.05;2.55;;;22.30;59.70;;;;;;5095405;28;20194;-54
2023/07/27 02:42:10;;;;;;;6.78;2.85;;;22.30;59.80;;;;;;5095566;28;20218;-52
2023/07/27 02:44:37;;;;;;;4.68;2.42;;;22.30;59.70;;;;;;5109496;28;20264;-54
2023/07/27 02:47:05;;;;;;;4.57;2.80;;;22.30;59.70;;;;;;5100416;27;20213;-53
2023/07/27 02:49:33;;;;;;;3.53;2.53;;;22.30;59.80;;;;;;5115585;28;20185;-54
2023/07/27 02:52:00;;;;;;;4.22;2.28;;;22.30;59.80;;;;;;5115787;28;20222;-51
2023/07/27 02:54:28;;;;;;;6.20;2.97;;;22.30;59.80;;;;;;5114769;28;20299;-55
2023/07/27 02:56:56;;;;;;;4.82;2.55;;;22.30;59.80;;;;;;5115245;28;20220;-57
2023/07/27 02:59:23;;;;;;;5.38;2.67;;;22.30;59.80;;;;;;5115229;28;20192;-52
2023/07/27 03:01:51;;;;;;;7.25;3.33;;;22.30;59.80;;;;;;5114831;28;20224;-55
2023/07/27 03:04:18;;;;;;;5.03;3.13;;;22.30;59.80;;;;;;5115052;28;20190;-52
2023/07/27 03:06:45;;;;;;;6.05;2.67;;;22.30;59.80;;;;;;5115383;27;20262;-51
2023/07/27 03:09:13;;;;;;;6.03;3.00;;;22.30;59.80;;;;;;5115266;28;20185;-50
2023/07/27 03:11:41;;;;;;;5.03;2.28;;;22.30;59.80;;;;;;5115009;28;20213;-54
2023/07/27 03:14:08;;;;;;;5.72;2.88;;;22.30;59.80;;;;;;5115139;28;20213;-51
2023/07/27 03:16:35;;;;;;;5.30;3.03;;;22.30;59.80;;;;;;5115285;28;20358;-54
2023/07/27 03:19:03;;;;;;;5.68;2.90;;;22.30;59.90;;;;;;5115113;28;20274;-53
2023/07/27 03:21:30;;;;;;;6.13;3.40;;;22.30;59.80;;;;;;5114870;28;20217;-55
2023/07/27 03:23:57;;;;;;;5.80;2.90;;;22.30;59.80;;;;;;5114650;28;20553;-54
2023/07/27 03:26:24;;;;;;;6.22;2.83;;;22.30;59.90;;;;;;5114689;28;20299;-51
2023/07/27 03:28:53;;;;;;;4.40;2.78;;;22.30;59.80;;;;;;5114936;28;20198;-54
2023/07/27 03:31:23;;;;;;;4.18;2.50;;;22.30;59.90;;;;;;5114536;28;20324;-56
2023/07/27 03:33:51;;;;;;;6.10;2.80;;;22.30;60.00;;;;;;5115066;28;20281;-55
2023/07/27 03:36:19;;;;;;;6.47;3.15;;;22.30;59.90;;;;;;5114688;28;20213;-58
2023/07/27 03:38:47;;;;;;;6.38;3.17;;;22.30;60.00;;;;;;5114711;28;20216;-56
2023/07/27 03:41:15;;;;;;;4.22;2.72;;;22.30;59.90;;;;;;5114640;28;20213;-51
2023/07/27 03:43:43;;;;;;;5.95;3.08;;;22.20;59.80;;;;;;5114716;28;20186;-57
2023/07/27 03:46:11;;;;;;;4.90;3.00;;;22.30;59.90;;;;;;5114401;28;20305;-59
2023/07/27 03:48:39;;;;;;;5.15;3.03;;;22.30;59.90;;;;;;5114721;28;20189;-59
2023/07/27 03:51:06;;;;;;;7.03;3.25;;;22.30;60.00;;;;;;5114496;28;20459;-62
2023/07/27 03:53:33;;;;;;;6.03;3.17;;;22.30;60.00;;;;;;5114395;28;20249;-57
2023/07/27 03:56:01;;;;;;;5.82;2.80;;;22.30;60.00;;;;;;5114250;28;20189;-58
2023/07/27 03:58:29;;;;;;;6.88;3.13;;;22.20;59.90;;;;;;5114323;28;20189;-57
2023/07/27 04:00:56;;;;;;;5.32;2.85;;;22.30;60.00;;;;;;5114250;28;20189;-57
2023/07/27 04:03:25;;;;;;;5.55;2.85;;;22.30;60.00;;;;;;5114252;28;20196;-56
2023/07/27 04:05:52;;;;;;;5.45;2.90;;;22.30;60.00;;;;;;5113253;28;20189;-56
2023/07/27 04:08:19;;;;;;;6.78;3.00;;;22.30;60.10;;;;;;5113838;28;20248;-58
2023/07/27 04:10:47;;;;;;;6.13;3.20;;;22.20;60.00;;;;;;5113998;28;20181;-58
2023/07/27 04:13:14;;;;;;;4.40;2.90;;;22.20;60.00;;;;;;5114044;28;20193;-57
2023/07/27 04:15:42;;;;;;;6.65;3.10;;;22.20;60.00;;;;;;5113599;28;20186;-56
2023/07/27 04:18:09;;;;;;;4.50;2.75;;;22.20;60.00;;;;;;5114061;28;20217;-54
2023/07/27 04:20:38;;;;;;;4.72;2.72;;;22.30;60.10;;;;;;5113576;28;20196;-56
2023/07/27 04:23:05;;;;;;;4.65;3.13;;;22.20;60.00;;;;;;5114108;28;20213;-50
2023/07/27 04:25:32;;;;;;;4.53;2.85;;;22.30;60.20;;;;;;5113761;28;20238;-52
2023/07/27 04:27:59;;;;;;;4.80;2.92;;;22.20;60.10;;;;;;5113931;28;20296;-54
2023/07/27 04:30:27;;;;;;;6.72;2.80;;;22.20;60.10;;;;;;5113230;28;20221;-55
2023/07/27 04:32:54;;;;;;;5.95;2.83;;;22.20;60.20;;;;;;5113887;28;20517;-51
2023/07/27 04:35:21;;;;;;;5.20;2.63;;;22.20;60.10;;;;;;5113772;28;20221;-54
2023/07/27 04:37:50;;;;;;;6.90;3.15;;;22.20;60.10;;;;;;5113720;28;20217;-58
2023/07/27 04:40:19;;;;;;;5.13;3.00;;;22.20;60.20;;;;;;5113249;28;20659;-53
2023/07/27 04:42:46;;;;;;;6.22;3.10;;;22.20;60.20;;;;;;5113389;28;20221;-51
2023/07/27 04:45:13;;;;;;;4.22;2.55;;;22.20;61.00;;;;;;5113543;28;20186;-56
2023/07/27 04:47:41;;;;;;;4.35;2.72;;;22.20;60.20;;;;;;5113538;28;20262;-55
2023/07/27 04:50:08;;;;;;;7.03;3.10;;;22.20;60.20;;;;;;5113364;28;20186;-54
2023/07/27 04:52:35;;;;;;;5.10;3.08;;;22.20;60.20;;;;;;5113164;28;20733;-56
2023/07/27 04:55:05;;;;;;;6.53;3.28;;;22.20;60.20;;;;;;5113175;28;20297;-55
2023/07/27 04:57:32;;;;;;;6.82;3.50;;;22.20;60.30;;;;;;5113060;28;20307;-56
2023/07/27 04:59:59;;;;;;;5.07;2.88;;;22.20;61.10;;;;;;5112901;28;20284;-54
2023/07/27 05:02:26;;;;;;;4.82;2.78;;;22.20;60.30;;;;;;5112849;28;20300;-51
2023/07/27 05:04:54;;;;;;;6.30;3.45;;;22.10;60.20;;;;;;5112858;28;20537;-54
2023/07/27 05:07:22;;;;;;;5.28;3.30;;;22.20;60.30;;;;;;5113242;27;20217;-54
2023/07/27 05:09:49;;;;;;;7.18;3.30;;;22.20;60.30;;;;;;5112747;28;20186;-55
2023/07/27 05:12:18;;;;;;;6.18;3.10;;;22.20;61.10;;;;;;5113119;28;20232;-53
2023/07/27 05:14:45;;;;;;;7.40;3.45;;;22.20;60.30;;;;;;5112578;28;20717;-55
2023/07/27 05:17:13;;;;;;;8.55;3.38;;;22.10;60.20;;;;;;5112835;28;20217;-54
2023/07/27 05:19:40;;;;;;;6.60;3.50;;;22.20;60.40;;;;;;5112688;28;20192;-54
2023/07/27 05:22:07;;;;;;;7.35;3.47;;;22.20;60.50;;;;;;5112962;28;20217;-56
2023/07/27 05:24:34;;;;;;;5.18;3.03;;;22.20;60.40;;;;;;5112856;28;20189;-53
2023/07/27 05:27:01;;;;;;;9.68;3.22;;;22.20;60.40;;;;;;5112871;28;20248;-54
2023/07/27 05:29:30;;;;;;;8.25;3.45;;;22.20;60.50;;;;;;5112986;28;20188;-56
2023/07/27 05:31:57;;;;;;;8.05;3.80;;;22.20;60.50;;;;;;5112459;28;20240;-53
2023/07/27 05:34:24;;;;;;;7.18;3.55;;;22.20;60.50;;;;;;5112600;28;20607;-53
2023/07/27 05:36:52;;;;;;;6.25;3.45;;;22.20;60.50;;;;;;5112891;28;20213;-55
2023/07/27 05:39:19;;;;;;;5.70;3.05;;;22.20;60.50;;;;;;5112613;28;20185;-54
2023/07/27 05:41:46;;;;;;;5.28;3.15;;;22.20;60.50;;;;;;5112667;28;20282;-54
2023/07/27 05:44:13;;;;;;;7.10;3.25;;;22.20;60.60;;;;;;5112521;28;20193;-54
2023/07/27 05:46:42;;;;;;;6.43;3.42;;;22.20;61.20;;;;;;5112373;28;20300;-55
2023/07/27 05:49:09;;;;;;;6.10;3.08;;;22.20;61.00;;;;;;5112307;28;20276;-52
2023/07/27 05:51:36;;;;;;;6.57;3.17;;;22.20;61.80;;;;;;5112271;28;20725;-54
2023/07/27 05:54:03;;;;;;;5.60;3.15;;;22.20;62.30;;;;;;5112331;28;20296;-54
2023/07/27 05:56:31;;;;;;;5.45;3.35;;;22.20;62.40;;;;;;5112456;28;20217;-57
2023/07/27 05:58:58;;;;;;;6.50;3.15;;;22.20;62.50;;;;;;5112568;28;20185;-56
2023/07/27 06:01:35;;;;;;;5.97;3.30;;;22.20;62.50;;;;;;5112268;28;20262;-55
2023/07/27 06:04:04;;;;;;;6.25;3.42;;;22.20;62.60;;;;;;5076910;28;20284;-56
2023/07/27 06:06:31;;;;;;;7.57;3.63;;;22.20;62.50;;;;;;5112440;28;20248;-55
2023/07/27 06:08:59;;;;;;;5.82;3.10;;;22.20;62.50;;;;;;5112594;28;20186;-57
2023/07/27 06:11:27;;;;;;;3.67;3.08;;;22.20;62.40;;;;;;5112468;28;20213;-54
2023/07/27 06:13:54;;;;;;;7.47;3.03;;;22.20;62.40;;;;;;5111987;28;20542;-55
2023/07/27 06:16:22;;;;;;;6.10;3.60;;;22.20;62.30;;;;;;5112263;28;20214;-57
2023/07/27 06:18:49;;;;;;;7.10;3.13;;;22.20;62.20;;;;;;5112519;28;20182;-54
2023/07/27 06:21:17;;;;;;;9.95;3.35;;;22.20;62.30;;;;;;5111958;28;20217;-54
2023/07/27 06:23:45;;;;;;;7.43;3.28;;;22.20;62.20;;;;;;5112267;28;20188;-56
2023/07/27 06:26:12;;;;;;;7.00;3.70;;;22.20;62.40;;;;;;5112127;28;20185;-50
2023/07/27 06:28:40;;;;;;;6.13;3.17;;;22.20;62.20;;;;;;5113448;28;20190;-58
2023/07/27 06:31:07;;;;;;;8.15;3.47;;;22.20;62.20;;;;;;5115676;28;20221;-56
2023/07/27 06:33:36;;;;;;;6.65;3.20;;;22.20;62.20;;;;;;5116255;28;20221;-55
2023/07/27 06:36:06;;;;;;;10.05;3.58;;;22.20;62.10;;;;;;5115466;28;20213;-55
2023/07/27 06:41:43;;;;;;;6.68;3.03;;;22.20;62.10;;;;;;5115956;28;20224;-55
2023/07/27 06:44:11;;;;;;;5.35;3.03;;;22.20;62.10;;;;;;5115741;28;20192;-55
2023/07/27 06:46:39;;;;;;;5.20;2.90;;;22.20;62.10;;;;;;5115560;28;20217;-57
2023/07/27 06:49:10;;;;;;;6.93;3.35;;;22.20;62.10;;;;;;5115437;28;20186;-58
2023/07/27 06:51:38;;;;;;;5.78;3.08;;;22.20;62.10;;;;;;5115338;28;20690;-56
2023/07/27 06:54:06;;;;;;;7.70;3.63;;;22.10;61.90;;;;;;5115183;27;20215;-54
2023/07/27 06:56:34;;;;;;;5.28;3.15;;;22.20;62.10;;;;;;5115742;28;20296;-53
2023/07/27 06:59:01;;;;;;;6.03;3.20;;;22.10;61.80;;;;;;5115560;28;20196;-55
2023/07/27 07:01:29;;;;;;;5.10;3.30;;;22.10;61.90;;;;;;5115388;28;20273;-49
2023/07/27 07:03:56;;;;;;;5.57;3.10;;;22.10;61.80;;;;;;5115372;28;20280;-56
2023/07/27 07:06:23;;;;;;;5.47;2.88;;;22.10;61.90;;;;;;5115335;28;20246;-55
2023/07/27 07:08:50;;;;;;;4.75;2.88;;;22.10;61.80;;;;;;5115321;28;20182;-53
2023/07/27 07:11:19;;;;;;;8.52;3.45;;;22.10;61.80;;;;;;5100423;28;20234;-55
2023/07/27 07:13:46;;;;;;;7.00;3.40;;;22.10;61.80;;;;;;5101827;28;20198;-52
2023/07/27 07:16:14;;;;;;;6.00;3.63;;;22.10;61.80;;;;;;5112322;27;20212;-58
2023/07/27 07:18:41;;;;;;;6.35;3.22;;;22.20;61.90;;;;;;5113297;28;20185;-55
2023/07/27 07:21:08;;;;;;;5.18;2.88;;;22.20;61.80;;;;;;5120077;27;20196;-58
2023/07/27 07:23:36;;;;;;;8.23;3.55;;;22.20;61.80;;;;;;5114096;28;20246;-55
2023/07/27 07:26:03;;;;;;;7.53;3.22;;;22.20;61.80;;;;;;5118452;27;20200;-57
2023/07/27 07:28:32;;;;;;;5.50;3.15;;;22.20;61.70;;;;;;5108432;28;20222;-57
2023/07/27 07:30:59;;;;;;;6.20;2.95;;;22.30;61.80;;;;;;5098590;27;20312;-56
2023/07/27 07:33:36;;;;;;;6.88;3.42;;;22.30;61.80;;;;;;5113322;28;20229;-55
2023/07/27 07:36:03;;;;;;;5.35;2.90;;;22.30;61.70;;;;;;5113976;27;20219;-58
2023/07/27 07:38:34;;;;;;;7.35;2.90;;;22.40;61.70;;;;;;5112751;28;20225;-56
2023/07/27 07:41:01;;;;;;;7.35;3.47;;;22.40;61.60;;;;;;5113053;27;20239;-57
2023/07/27 07:43:29;;;;;;;4.82;3.05;;;22.50;61.70;;;;;;5112146;28;20251;-56
2023/07/27 07:45:58;;;;;;;5.20;2.97;;;22.50;61.60;;;;;;5115658;27;20185;-57
2023/07/27 07:48:25;;;;;;;4.28;2.75;;;22.50;61.50;;;;;;5106927;28;20221;-59
2023/07/27 07:50:53;;;;;;;3.97;3.00;;;22.50;61.40;;;;;;5108999;27;20193;-58
2023/07/27 07:53:20;;;;;;;4.03;2.85;;;22.50;61.40;;;;;;5111351;28;20270;-55
2023/07/27 07:55:48;;;;;;;4.25;2.83;;;22.60;61.40;;;;;;5109736;27;20209;-56
2023/07/27 07:58:15;;;;;;;4.80;2.95;;;22.60;61.40;;;;;;5110126;28;20217;-56
2023/07/27 08:00:44;;;;;;;5.30;3.17;;;22.60;61.30;;;;;;5110206;28;20557;-54
2023/07/27 08:03:12;;;;;;;8.13;2.97;;;22.60;61.20;;;;;;5111394;28;20231;-55
2023/07/27 08:05:42;;;;;;;6.50;3.13;;;22.60;61.20;;;;;;5112057;27;20181;-57
2023/07/27 08:08:09;;;;;;;6.45;2.90;;;22.60;61.10;;;;;;5111485;28;20315;-57
2023/07/27 08:10:37;;;;;;;3.92;2.95;;;22.70;61.20;;;;;;5111201;28;20192;-56
2023/07/27 08:13:04;;;;;;;6.60;3.05;;;22.70;61.20;;;;;;5110617;28;20224;-55
2023/07/27 08:15:31;;;;;;;5.05;2.85;;;22.70;61.20;;;;;;5110938;28;20201;-56
2023/07/27 08:20:44;;;;;;;4.38;2.72;;;22.70;61.10;;;;;;5068660;28;20191;-55
2023/07/27 08:23:11;;;;;;;4.20;2.60;;;22.70;61.10;;;;;;5102860;28;20221;-58
2023/07/27 08:25:39;;;;;;;6.20;3.15;;;22.70;61.10;;;;;;5112859;27;20184;-59
2023/07/27 08:28:06;;;;;;;4.97;2.58;;;22.70;61.00;;;;;;5114458;27;20260;-58
2023/07/27 08:30:33;;;;;;;6.72;2.90;;;22.70;61.00;;;;;;5109892;28;20200;-59
2023/07/27 08:33:00;;;;;;;4.22;2.60;;;22.70;61.10;;;;;;5111329;28;20570;-57
2023/07/27 08:35:29;;;;;;;7.13;2.92;;;22.70;61.10;;;;;;5111436;28;20311;-59
2023/07/27 08:38:02;;;;;;;7.40;3.20;;;22.70;61.00;;;;;;5111157;27;20754;-58
2023/07/27 08:40:31;;;;;;;5.03;2.78;;;22.80;61.10;;;;;;5109739;28;20253;-58
2023/07/27 08:42:59;;;;;;;7.70;2.60;;;22.70;61.00;;;;;;5111087;28;20217;-57
2023/07/27 08:45:27;;;;;;;5.90;2.72;;;22.80;61.10;;;;;;5111184;28;20280;-59
2023/07/27 08:47:58;;;;;;;4.13;2.28;;;22.80;61.10;;;;;;5108659;27;20643;-58
2023/07/27 08:50:26;;;;;;;5.53;2.58;;;22.80;61.80;;;;;;5102916;28;20293;-58
2023/07/27 08:55:55;;;;;;;7.97;2.40;;;22.80;61.00;;;;;;5097509;28;20256;-58
2023/07/27 08:58:22;;;;;;;5.43;2.78;;;22.80;61.00;;;;;;5100273;28;20304;-58
2023/07/27 09:00:50;;;;;;;5.78;2.47;;;22.80;61.00;;;;;;5109440;28;20193;-58
2023/07/27 09:03:17;;;;;;;3.88;1.98;;;22.80;60.90;;;;;;5109086;28;20301;-57
2023/07/27 09:05:46;;;;;;;4.32;2.35;;;22.90;60.90;;;;;;5109792;27;20190;-57
2023/07/27 09:08:15;;;;;;;3.70;2.30;;;22.90;60.90;;;;;;5105964;28;20223;-57
2023/07/27 09:10:45;;;;;;;5.25;2.42;;;22.90;60.90;;;;;;5100848;28;20189;-58
2023/07/27 09:13:14;;;;;;;4.28;1.98;;;22.90;60.90;;;;;;5101184;28;20225;-57
2023/07/27 09:15:43;;;;;;;5.22;2.60;;;23.00;60.90;;;;;;5105722;28;20205;-57
2023/07/27 09:18:13;;;;;;;3.72;2.20;;;23.00;60.90;;;;;;5104600;28;20214;-59
2023/07/27 09:20:41;;;;;;;3.90;1.90;;;22.90;60.70;;;;;;5105810;28;20310;-58
2023/07/27 09:23:12;;;;;;;3.72;2.03;;;23.00;60.90;;;;;;5107427;28;20300;-58
2023/07/27 09:25:53;;;;;;;2.90;1.80;;;23.00;60.80;;;;;;5104309;28;20276;-56
2023/07/27 09:28:26;;;;;;;3.65;2.22;;;23.00;60.70;;;;;;5104319;28;20331;-59
2023/07/27 09:30:58;;;;;;;8.45;2.20;;;23.00;60.70;;;;;;5107939;28;20221;-58
2023/07/27 09:33:28;;;;;;;3.58;2.25;;;23.00;60.70;;;;;;5106574;28;20242;-56
2023/07/27 09:35:56;;;;;;;4.30;2.35;;;23.00;60.70;;;;;;5104701;28;20204;-59
2023/07/27 09:38:27;;;;;;;3.83;2.13;;;23.00;60.70;;;;;;5110169;28;20216;-58
2023/07/27 09:40:54;;;;;;;5.28;2.33;;;23.00;60.80;;;;;;5107709;28;20655;-59
2023/07/27 09:43:24;;;;;;;4.32;1.90;;;23.10;60.90;;;;;;5108463;28;20224;-57
2023/07/27 09:45:58;;;;;;;4.35;1.90;;;23.10;60.90;;;;;;5108846;28;20933;-58
2023/07/27 09:48:25;;;;;;;2.13;1.60;;;23.10;60.90;;;;;;5107569;28;20217;-58
2023/07/27 09:50:55;;;;;;;2.95;1.88;;;23.10;60.90;;;;;;5100494;28;20304;-58
2023/07/27 09:53:32;;;;;;;4.63;2.00;;;23.10;60.90;;;;;;5109365;28;20695;-58
2023/07/27 09:56:00;;;;;;;3.85;1.83;;;23.10;60.90;;;;;;5107776;28;20216;-58
2023/07/27 09:58:29;;;;;;;4.30;2.05;;;23.10;60.80;;;;;;5114328;28;20316;-59
2023/07/27 10:00:56;;;;;;;4.32;1.98;;;23.10;60.90;;;;;;5109448;28;20200;-58
2023/07/27 10:03:23;;;;;;;4.38;2.03;;;23.10;60.80;;;;;;5110757;28;20300;-58
2023/07/27 10:05:51;;;;;;;4.25;1.90;;;23.10;61.60;;;;;;5114543;27;20193;-57
2023/07/27 10:08:18;;;;;;;6.22;1.98;;;23.10;60.70;;;;;;5115857;27;20263;-59
2023/07/27 10:10:46;;;;;;;6.68;1.75;;;23.10;60.70;;;;;;5111511;28;20193;-59
2023/07/27 10:13:31;;;;;;;5.78;1.55;;;23.10;60.80;;;;;;5116607;27;20221;-59
2023/07/27 10:16:01;;;;;;;3.25;1.80;;;23.10;60.70;;;;;;5104594;27;20256;-57
2023/07/27 10:18:31;;;;;;;5.55;1.70;;;23.10;60.90;;;;;;5107684;28;20248;-58
2023/07/27 10:21:25;;;;;;;3.50;1.50;;;23.10;60.80;;;;;;5100293;28;20243;-58
2023/07/27 10:23:57;;;;;;;2.72;1.63;;;23.20;61.00;;;;;;5104308;28;20312;-59
2023/07/27 10:26:49;;;;;;;2.67;1.88;;;23.20;61.00;;;;;;5110500;27;20193;-58
2023/07/27 10:29:18;;;;;;;1.70;1.38;;;23.20;61.00;;;;;;5111419;28;20303;-58
2023/07/27 10:31:59;;;;;;;2.47;1.80;;;23.10;60.90;;;;;;5113009;28;20221;-59
2023/07/27 10:34:28;;;;;;;3.53;1.67;;;23.20;61.00;;;;;;5114036;28;20248;-58
2023/07/27 10:36:57;;;;;;;5.63;1.75;;;23.10;60.80;;;;;;5112934;27;20236;-58
2023/07/27 10:39:30;;;;;;;2.20;1.40;;;23.10;60.90;;;;;;5114064;28;20228;-58
2023/07/27 10:42:12;;;;;;;4.85;1.42;;;23.20;61.10;;;;;;5107670;27;20204;-57
2023/07/27 10:44:47;;;;;;;2.50;1.48;;;23.20;61.10;;;;;;5104185;28;20877;-58
2023/07/27 10:47:16;;;;;;;2.72;1.70;;;23.20;61.00;;;;;;5107292;27;20197;-57
2023/07/27 10:49:45;;;;;;;1.70;1.30;;;23.20;61.00;;;;;;5105862;28;20221;-58
2023/07/27 10:52:16;;;;;;;2.15;1.58;;;23.20;61.00;;;;;;5108367;27;20195;-58
2023/07/27 10:54:44;;;;;;;1.42;1.30;;;23.20;60.90;;;;;;5109532;28;20213;-58
2023/07/27 10:57:14;;;;;;;3.40;1.50;;;23.30;61.10;;;;;;5108981;28;20694;-54
2023/07/27 10:59:43;;;;;;;2.53;1.50;;;23.20;60.90;;;;;;5106938;28;20217;-57
2023/07/27 11:02:15;;;;;;;4.50;1.60;;;23.20;60.90;;;;;;5101669;28;20190;-56
2023/07/27 11:04:43;;;;;;;2.42;1.40;;;23.20;61.00;;;;;;5099960;28;20220;-56
2023/07/27 11:07:11;;;;;;;2.55;1.40;;;23.20;60.90;;;;;;5100886;28;20193;-57
2023/07/27 11:09:38;;;;;;;2.40;1.40;;;23.20;60.90;;;;;;5100843;28;20312;-57
2023/07/27 11:12:05;;;;;;;2.03;1.33;;;23.20;60.90;;;;;;5107161;27;20209;-57
2023/07/27 11:14:32;;;;;;;6.28;1.80;;;23.20;60.90;;;;;;5102744;28;20222;-57
2023/07/27 11:17:00;;;;;;;2.58;1.40;;;23.30;61.00;;;;;;5105459;28;20213;-52
2023/07/27 11:19:29;;;;;;;2.70;1.73;;;23.20;60.90;;;;;;5099416;28;20221;-53
2023/07/27 11:22:00;;;;;;;2.00;1.58;;;23.20;61.00;;;;;;5107435;28;20185;-55
2023/07/27 11:24:27;;;;;;;5.03;1.10;;;23.20;61.10;;;;;;5108916;28;20761;-58
2023/07/27 11:26:54;;;;;;;2.22;1.42;;;23.20;61.10;;;;;;5115886;27;20192;-56
2023/07/27 11:29:22;;;;;;;1.92;1.38;;;23.20;61.10;;;;;;5114631;27;20220;-56
2023/07/27 11:31:57;;;;;;;1.85;1.38;;;23.20;61.10;;;;;;5112215;27;20352;-57
2023/07/27 11:34:24;;;;;;;2.28;1.58;;;23.10;61.10;;;;;;5110939;28;20286;-57
2023/07/27 11:36:54;;;;;;;1.80;1.30;;;23.20;61.20;;;;;;5110249;27;20681;-58
2023/07/27 11:39:22;;;;;;;1.98;1.40;;;23.20;61.30;;;;;;5109113;28;20217;-56
2023/07/27 11:41:49;;;;;;;2.17;1.50;;;23.20;61.30;;;;;;5109841;27;20289;-57
2023/07/27 11:44:17;;;;;;;2.08;1.13;;;23.10;61.30;;;;;;5108638;28;20716;-56
2023/07/27 11:46:47;;;;;;;1.15;1.00;;;23.10;61.30;;;;;;5109473;28;20204;-58
2023/07/27 11:49:15;;;;;;;2.03;1.25;;;23.20;61.50;;;;;;5110561;28;20221;-58
2023/07/27 11:51:45;;;;;;;2.60;1.48;;;23.20;61.50;;;;;;5105195;27;20615;-58
2023/07/27 11:54:22;;;;;;;1.25;0.98;;;23.20;61.60;;;;;;5110475;28;20225;-58
2023/07/27 11:56:51;;;;;;;1.25;1.00;;;23.20;61.50;;;;;;5102757;28;20217;-58
2023/07/27 11:59:19;;;;;;;2.13;1.30;;;23.20;61.50;;;;;;5111101;28;20221;-57
2023/07/27 12:01:46;;;;;;;1.95;1.00;;;23.20;61.50;;;;;;5093733;28;20201;-58
2023/07/27 12:04:17;;;;;;;1.38;1.00;;;23.20;61.50;;;;;;5098360;28;20225;-60
2023/07/27 12:06:44;;;;;;;1.75;1.08;;;23.20;61.50;;;;;;5094171;27;20223;-55
2023/07/27 12:09:13;;;;;;;3.20;1.17;;;23.20;61.50;;;;;;5104867;27;20217;-57
2023/07/27 12:11:40;;;;;;;3.45;1.00;;;23.10;61.50;;;;;;5106058;27;20201;-57
2023/07/27 12:14:08;;;;;;;1.10;1.00;;;23.10;61.60;;;;;;5112372;27;20219;-59
2023/07/27 12:16:39;;;;;;;1.98;1.20;;;23.20;61.80;;;;;;5096303;27;20923;-55
2023/07/27 12:19:07;;;;;;;2.95;1.40;;;23.20;61.80;;;;;;5095615;27;20255;-57
2023/07/27 12:21:35;;;;;;;1.20;0.88;;;23.20;61.90;;;;;;5103336;27;20638;-55
2023/07/27 12:24:08;;;;;;;2.97;1.42;;;23.20;62.00;;;;;;5101263;27;20201;-54
2023/07/27 12:26:37;;;;;;;2.47;1.00;;;23.20;62.10;;;;;;5103706;28;20248;-54
2023/07/27 12:29:05;;;;;;;1.65;1.20;;;23.20;62.10;;;;;;5101852;27;20643;-56
2023/07/27 12:31:33;;;;;;;4.45;0.90;;;23.10;62.10;;;;;;5102066;27;20309;-58
2023/07/27 12:34:00;;;;;;;1.55;0.95;;;23.20;62.20;;;;;;5110858;27;20193;-60
2023/07/27 12:36:27;;;;;;;1.30;1.00;;;23.20;62.30;;;;;;5114837;27;20319;-56
2023/07/27 12:38:54;;;;;;;1.70;1.05;;;23.20;62.50;;;;;;5108440;28;20243;-59
2023/07/27 12:41:22;;;;;;;1.60;0.90;;;23.10;62.20;;;;;;5108622;28;20304;-53
2023/07/27 12:43:50;;;;;;;1.65;0.95;;;23.20;62.50;;;;;;5107931;28;20201;-58
2023/07/27 12:46:18;;;;;;;3.53;1.13;;;23.10;62.30;;;;;;5105776;27;20290;-57
2023/07/27 12:48:45;;;;;;;1.10;1.00;;;23.10;62.40;;;;;;5109288;27;20189;-59
2023/07/27 12:51:13;;;;;;;2.38;1.20;;;23.10;62.40;;;;;;5109067;27;20278;-59
2023/07/27 12:53:40;;;;;;;1.58;1.00;;;23.10;62.50;;;;;;5108880;27;20276;-59
2023/07/27 12:56:09;;;;;;;1.85;1.00;;;23.10;63.20;;;;;;5109269;27;20225;-59
2023/07/27 12:58:36;;;;;;;2.58;1.00;;;23.10;62.50;;;;;;5108174;28;20238;-59
2023/07/27 13:01:05;;;;;;;1.75;0.95;;;23.10;62.50;;;;;;5106263;27;20312;-59
2023/07/27 13:03:32;;;;;;;2.67;1.10;;;23.10;62.60;;;;;;5114518;27;20221;-57
2023/07/27 13:06:00;;;;;;;1.50;1.05;;;23.10;62.60;;;;;;5103957;28;20658;-59